sensor_id;sensor_type;location;lat;lon;timestamp;P1;durP1;ratioP1;P2;durP2;ratioP2
36391;SDS011;22639;42.690;23.356;2022-07-19T00:01:11;3.90;;;3.58;;
36391;SDS011;22639;42.690;23.356;2022-07-19T00:03:36;3.40;;;3.10;;
36391;SDS011;22639;42.690;23.356;2022-07-19T00:06:02;4.03;;;3.72;;
36391;SDS011;22639;42.690;23.356;2022-07-19T00:08:28;3.70;;;3.40;;
36391;SDS011;22639;42.690;23.356;2022-07-19T00:10:53;5.72;;;3.05;;
36391;SDS011;22639;42.690;23.356;2022-07-19T00:13:18;5.10;;;3.72;;
36391;SDS011;22639;42.690;23.356;2022-07-19T00:15:44;4.40;;;3.92;;
36391;SDS011;22639;42.690;23.356;2022-07-19T00:18:09;4.65;;;3.67;;
36391;SDS011;22639;42.690;23.356;2022-07-19T00:20:35;4.63;;;4.22;;
36391;SDS011;22639;42.690;23.356;2022-07-19T00:23:00;4.65;;;4.07;;
36391;SDS011;22639;42.690;23.356;2022-07-19T00:25:25;3.58;;;3.28;;
36391;SDS011;22639;42.690;23.356;2022-07-19T00:27:51;3.70;;;3.40;;
36391;SDS011;22639;42.690;23.356;2022-07-19T00:30:16;4.15;;;3.50;;
36391;SDS011;22639;42.690;23.356;2022-07-19T00:32:42;4.22;;;3.83;;
36391;SDS011;22639;42.690;23.356;2022-07-19T00:35:07;4.10;;;3.80;;
36391;SDS011;22639;42.690;23.356;2022-07-19T00:37:33;3.70;;;3.40;;
36391;SDS011;22639;42.690;23.356;2022-07-19T00:39:59;4.57;;;4.18;;
36391;SDS011;22639;42.690;23.356;2022-07-19T00:42:24;3.63;;;3.22;;
36391;SDS011;22639;42.690;23.356;2022-07-19T00:44:50;5.13;;;3.67;;
36391;SDS011;22639;42.690;23.356;2022-07-19T00:47:15;6.22;;;4.47;;
36391;SDS011;22639;42.690;23.356;2022-07-19T00:49:41;3.28;;;3.00;;
36391;SDS011;22639;42.690;23.356;2022-07-19T00:52:06;4.43;;;4.03;;
36391;SDS011;22639;42.690;23.356;2022-07-19T00:54:33;4.43;;;3.28;;
36391;SDS011;22639;42.690;23.356;2022-07-19T00:57:00;4.05;;;3.70;;
36391;SDS011;22639;42.690;23.356;2022-07-19T00:59:28;4.25;;;3.80;;
36391;SDS011;22639;42.690;23.356;2022-07-19T01:01:53;7.95;;;3.90;;
36391;SDS011;22639;42.690;23.356;2022-07-19T01:04:20;4.00;;;3.60;;
36391;SDS011;22639;42.690;23.356;2022-07-19T01:06:46;5.63;;;3.72;;
36391;SDS011;22639;42.690;23.356;2022-07-19T01:09:11;6.35;;;3.88;;
36391;SDS011;22639;42.690;23.356;2022-07-19T01:11:38;4.65;;;3.60;;
36391;SDS011;22639;42.690;23.356;2022-07-19T01:14:04;4.60;;;4.05;;
36391;SDS011;22639;42.690;23.356;2022-07-19T01:16:29;4.65;;;3.63;;
36391;SDS011;22639;42.690;23.356;2022-07-19T01:18:55;4.50;;;3.92;;
36391;SDS011;22639;42.690;23.356;2022-07-19T01:21:21;5.50;;;4.40;;
36391;SDS011;22639;42.690;23.356;2022-07-19T01:23:49;4.55;;;3.83;;
36391;SDS011;22639;42.690;23.356;2022-07-19T01:26:15;4.32;;;3.92;;
36391;SDS011;22639;42.690;23.356;2022-07-19T01:28:41;5.70;;;4.57;;
36391;SDS011;22639;42.690;23.356;2022-07-19T01:31:07;5.15;;;4.00;;
36391;SDS011;22639;42.690;23.356;2022-07-19T01:33:38;4.93;;;4.50;;
36391;SDS011;22639;42.690;23.356;2022-07-19T01:36:04;4.82;;;3.63;;
36391;SDS011;22639;42.690;23.356;2022-07-19T01:38:30;5.18;;;3.92;;
36391;SDS011;22639;42.690;23.356;2022-07-19T01:40:57;4.40;;;3.40;;
36391;SDS011;22639;42.690;23.356;2022-07-19T01:43:23;4.10;;;3.80;;
36391;SDS011;22639;42.690;23.356;2022-07-19T01:45:49;4.35;;;3.95;;
36391;SDS011;22639;42.690;23.356;2022-07-19T01:48:14;4.38;;;3.55;;
36391;SDS011;22639;42.690;23.356;2022-07-19T01:50:40;4.45;;;3.55;;
36391;SDS011;22639;42.690;23.356;2022-07-19T01:53:05;4.00;;;3.60;;
36391;SDS011;22639;42.690;23.356;2022-07-19T01:55:31;3.72;;;3.42;;
36391;SDS011;22639;42.690;23.356;2022-07-19T01:57:56;5.03;;;3.20;;
36391;SDS011;22639;42.690;23.356;2022-07-19T02:00:21;4.38;;;3.47;;
36391;SDS011;22639;42.690;23.356;2022-07-19T02:02:47;3.72;;;3.30;;
36391;SDS011;22639;42.690;23.356;2022-07-19T02:05:12;5.28;;;4.78;;
36391;SDS011;22639;42.690;23.356;2022-07-19T02:07:38;9.25;;;3.63;;
36391;SDS011;22639;42.690;23.356;2022-07-19T02:10:04;4.88;;;4.47;;
36391;SDS011;22639;42.690;23.356;2022-07-19T02:12:30;4.43;;;4.03;;
36391;SDS011;22639;42.690;23.356;2022-07-19T02:14:56;4.28;;;3.88;;
36391;SDS011;22639;42.690;23.356;2022-07-19T02:17:21;6.47;;;5.13;;
36391;SDS011;22639;42.690;23.356;2022-07-19T02:19:47;4.85;;;4.43;;
36391;SDS011;22639;42.690;23.356;2022-07-19T02:22:12;4.88;;;3.95;;
36391;SDS011;22639;42.690;23.356;2022-07-19T02:24:38;4.63;;;3.80;;
36391;SDS011;22639;42.690;23.356;2022-07-19T02:27:07;4.45;;;4.05;;
36391;SDS011;22639;42.690;23.356;2022-07-19T02:29:34;3.75;;;3.50;;
36391;SDS011;22639;42.690;23.356;2022-07-19T02:31:59;5.00;;;4.22;;
36391;SDS011;22639;42.690;23.356;2022-07-19T02:34:25;3.80;;;3.50;;
36391;SDS011;22639;42.690;23.356;2022-07-19T02:36:50;4.88;;;3.25;;
36391;SDS011;22639;42.690;23.356;2022-07-19T02:39:16;4.70;;;3.38;;
36391;SDS011;22639;42.690;23.356;2022-07-19T02:41:41;4.70;;;3.83;;
36391;SDS011;22639;42.690;23.356;2022-07-19T02:44:06;5.43;;;3.42;;
36391;SDS011;22639;42.690;23.356;2022-07-19T02:46:32;4.63;;;3.60;;
36391;SDS011;22639;42.690;23.356;2022-07-19T02:48:57;3.45;;;3.15;;
36391;SDS011;22639;42.690;23.356;2022-07-19T02:51:23;5.28;;;3.67;;
36391;SDS011;22639;42.690;23.356;2022-07-19T02:53:48;3.97;;;3.55;;
36391;SDS011;22639;42.690;23.356;2022-07-19T02:56:13;5.63;;;4.43;;
36391;SDS011;22639;42.690;23.356;2022-07-19T02:58:39;7.90;;;3.78;;
36391;SDS011;22639;42.690;23.356;2022-07-19T03:01:05;5.30;;;3.90;;
36391;SDS011;22639;42.690;23.356;2022-07-19T03:03:30;5.97;;;4.38;;
36391;SDS011;22639;42.690;23.356;2022-07-19T03:06:16;5.10;;;3.90;;
36391;SDS011;22639;42.690;23.356;2022-07-19T03:08:42;5.28;;;3.95;;
36391;SDS011;22639;42.690;23.356;2022-07-19T03:11:08;4.60;;;3.63;;
36391;SDS011;22639;42.690;23.356;2022-07-19T03:13:34;6.07;;;5.30;;
36391;SDS011;22639;42.690;23.356;2022-07-19T03:16:00;13.82;;;10.82;;
36391;SDS011;22639;42.690;23.356;2022-07-19T03:18:25;10.23;;;9.18;;
36391;SDS011;22639;42.690;23.356;2022-07-19T03:20:50;10.30;;;8.63;;
36391;SDS011;22639;42.690;23.356;2022-07-19T03:23:16;14.32;;;12.43;;
36391;SDS011;22639;42.690;23.356;2022-07-19T03:25:41;28.88;;;24.63;;
36391;SDS011;22639;42.690;23.356;2022-07-19T03:28:07;24.40;;;20.70;;
36391;SDS011;22639;42.690;23.356;2022-07-19T03:30:32;11.07;;;9.90;;
36391;SDS011;22639;42.690;23.356;2022-07-19T03:32:58;24.83;;;22.08;;
36391;SDS011;22639;42.690;23.356;2022-07-19T03:35:23;14.27;;;12.90;;
36391;SDS011;22639;42.690;23.356;2022-07-19T03:37:49;8.30;;;7.20;;
36391;SDS011;22639;42.690;23.356;2022-07-19T03:40:14;5.85;;;5.20;;
36391;SDS011;22639;42.690;23.356;2022-07-19T03:42:40;8.02;;;7.03;;
36391;SDS011;22639;42.690;23.356;2022-07-19T03:45:06;11.70;;;10.60;;
36391;SDS011;22639;42.690;23.356;2022-07-19T03:47:32;5.20;;;4.65;;
36391;SDS011;22639;42.690;23.356;2022-07-19T03:49:57;5.00;;;3.78;;
36391;SDS011;22639;42.690;23.356;2022-07-19T03:52:23;4.35;;;3.90;;
36391;SDS011;22639;42.690;23.356;2022-07-19T03:54:49;4.32;;;3.92;;
36391;SDS011;22639;42.690;23.356;2022-07-19T03:57:14;4.70;;;3.63;;
36391;SDS011;22639;42.690;23.356;2022-07-19T03:59:40;4.38;;;3.15;;
36391;SDS011;22639;42.690;23.356;2022-07-19T04:02:05;5.72;;;3.75;;
36391;SDS011;22639;42.690;23.356;2022-07-19T04:04:31;5.22;;;3.63;;
36391;SDS011;22639;42.690;23.356;2022-07-19T04:06:56;6.28;;;3.63;;
36391;SDS011;22639;42.690;23.356;2022-07-19T04:09:22;3.60;;;3.30;;
36391;SDS011;22639;42.690;23.356;2022-07-19T04:11:48;6.68;;;3.38;;
36391;SDS011;22639;42.690;23.356;2022-07-19T04:14:14;3.72;;;3.33;;
36391;SDS011;22639;42.690;23.356;2022-07-19T04:16:40;5.15;;;3.30;;
36391;SDS011;22639;42.690;23.356;2022-07-19T04:19:05;4.28;;;3.00;;
36391;SDS011;22639;42.690;23.356;2022-07-19T04:21:31;4.32;;;3.40;;
36391;SDS011;22639;42.690;23.356;2022-07-19T04:23:58;3.65;;;3.15;;
36391;SDS011;22639;42.690;23.356;2022-07-19T04:26:23;2.97;;;2.75;;
36391;SDS011;22639;42.690;23.356;2022-07-19T04:28:49;4.47;;;3.17;;
36391;SDS011;22639;42.690;23.356;2022-07-19T04:31:14;3.75;;;2.95;;
36391;SDS011;22639;42.690;23.356;2022-07-19T04:33:40;5.18;;;3.53;;
36391;SDS011;22639;42.690;23.356;2022-07-19T04:36:06;3.42;;;2.90;;
36391;SDS011;22639;42.690;23.356;2022-07-19T04:38:32;3.97;;;3.20;;
36391;SDS011;22639;42.690;23.356;2022-07-19T04:40:57;3.25;;;2.95;;
36391;SDS011;22639;42.690;23.356;2022-07-19T04:43:23;4.18;;;2.80;;
36391;SDS011;22639;42.690;23.356;2022-07-19T04:45:48;3.42;;;2.50;;
36391;SDS011;22639;42.690;23.356;2022-07-19T04:48:13;4.78;;;3.10;;
36391;SDS011;22639;42.690;23.356;2022-07-19T04:50:39;3.53;;;3.22;;
36391;SDS011;22639;42.690;23.356;2022-07-19T04:53:05;3.22;;;2.92;;
36391;SDS011;22639;42.690;23.356;2022-07-19T04:55:31;5.90;;;3.60;;
36391;SDS011;22639;42.690;23.356;2022-07-19T04:57:56;4.18;;;3.50;;
36391;SDS011;22639;42.690;23.356;2022-07-19T05:00:22;9.43;;;6.97;;
36391;SDS011;22639;42.690;23.356;2022-07-19T05:02:47;9.70;;;7.43;;
36391;SDS011;22639;42.690;23.356;2022-07-19T05:05:13;8.60;;;6.80;;
36391;SDS011;22639;42.690;23.356;2022-07-19T05:07:39;7.75;;;6.03;;
36391;SDS011;22639;42.690;23.356;2022-07-19T05:10:06;8.35;;;7.22;;
36391;SDS011;22639;42.690;23.356;2022-07-19T05:12:32;8.50;;;5.90;;
36391;SDS011;22639;42.690;23.356;2022-07-19T05:14:58;7.53;;;6.72;;
36391;SDS011;22639;42.690;23.356;2022-07-19T05:17:24;5.10;;;4.60;;
36391;SDS011;22639;42.690;23.356;2022-07-19T05:19:49;5.00;;;4.50;;
36391;SDS011;22639;42.690;23.356;2022-07-19T05:22:15;5.38;;;4.07;;
36391;SDS011;22639;42.690;23.356;2022-07-19T05:24:40;6.60;;;4.50;;
36391;SDS011;22639;42.690;23.356;2022-07-19T05:27:06;5.10;;;4.40;;
36391;SDS011;22639;42.690;23.356;2022-07-19T05:29:31;8.35;;;6.07;;
36391;SDS011;22639;42.690;23.356;2022-07-19T05:31:56;5.90;;;5.30;;
36391;SDS011;22639;42.690;23.356;2022-07-19T05:34:22;5.18;;;3.83;;
36391;SDS011;22639;42.690;23.356;2022-07-19T05:36:47;5.13;;;3.35;;
36391;SDS011;22639;42.690;23.356;2022-07-19T05:39:13;5.35;;;4.57;;
36391;SDS011;22639;42.690;23.356;2022-07-19T05:41:40;4.35;;;3.78;;
36391;SDS011;22639;42.690;23.356;2022-07-19T05:44:05;7.22;;;4.88;;
36391;SDS011;22639;42.690;23.356;2022-07-19T05:46:31;4.88;;;4.30;;
36391;SDS011;22639;42.690;23.356;2022-07-19T05:48:56;3.38;;;3.08;;
36391;SDS011;22639;42.690;23.356;2022-07-19T05:51:22;5.00;;;3.83;;
36391;SDS011;22639;42.690;23.356;2022-07-19T05:53:47;3.60;;;3.28;;
36391;SDS011;22639;42.690;23.356;2022-07-19T05:56:13;3.08;;;2.80;;
36391;SDS011;22639;42.690;23.356;2022-07-19T05:58:38;2.58;;;2.38;;
36391;SDS011;22639;42.690;23.356;2022-07-19T06:01:04;4.32;;;3.88;;
36391;SDS011;22639;42.690;23.356;2022-07-19T06:03:54;3.65;;;2.63;;
36391;SDS011;22639;42.690;23.356;2022-07-19T06:06:21;5.07;;;4.60;;
36391;SDS011;22639;42.690;23.356;2022-07-19T06:08:48;3.60;;;3.22;;
36391;SDS011;22639;42.690;23.356;2022-07-19T06:11:14;3.10;;;2.80;;
36391;SDS011;22639;42.690;23.356;2022-07-19T06:13:40;3.70;;;2.38;;
36391;SDS011;22639;42.690;23.356;2022-07-19T06:16:06;3.05;;;2.05;;
36391;SDS011;22639;42.690;23.356;2022-07-19T06:18:32;3.47;;;2.53;;
36391;SDS011;22639;42.690;23.356;2022-07-19T06:21:03;2.50;;;2.30;;
36391;SDS011;22639;42.690;23.356;2022-07-19T06:23:30;3.15;;;2.42;;
36391;SDS011;22639;42.690;23.356;2022-07-19T06:25:56;3.97;;;2.60;;
36391;SDS011;22639;42.690;23.356;2022-07-19T06:28:22;3.00;;;2.70;;
36391;SDS011;22639;42.690;23.356;2022-07-19T06:30:48;3.50;;;3.00;;
36391;SDS011;22639;42.690;23.356;2022-07-19T06:33:14;3.17;;;2.42;;
36391;SDS011;22639;42.690;23.356;2022-07-19T06:35:39;4.45;;;2.72;;
36391;SDS011;22639;42.690;23.356;2022-07-19T06:38:05;2.35;;;2.15;;
36391;SDS011;22639;42.690;23.356;2022-07-19T06:40:31;2.33;;;2.13;;
36391;SDS011;22639;42.690;23.356;2022-07-19T06:42:57;2.40;;;2.20;;
36391;SDS011;22639;42.690;23.356;2022-07-19T06:45:22;2.28;;;2.08;;
36391;SDS011;22639;42.690;23.356;2022-07-19T06:47:48;2.25;;;2.08;;
36391;SDS011;22639;42.690;23.356;2022-07-19T06:50:15;2.72;;;2.08;;
36391;SDS011;22639;42.690;23.356;2022-07-19T06:52:41;4.07;;;2.67;;
36391;SDS011;22639;42.690;23.356;2022-07-19T06:55:06;2.60;;;2.17;;
36391;SDS011;22639;42.690;23.356;2022-07-19T06:57:32;2.60;;;2.40;;
36391;SDS011;22639;42.690;23.356;2022-07-19T06:59:58;2.42;;;2.22;;
36391;SDS011;22639;42.690;23.356;2022-07-19T07:02:23;2.38;;;2.20;;
36391;SDS011;22639;42.690;23.356;2022-07-19T07:04:49;2.70;;;2.40;;
36391;SDS011;22639;42.690;23.356;2022-07-19T07:07:14;2.72;;;2.53;;
36391;SDS011;22639;42.690;23.356;2022-07-19T07:09:40;4.35;;;2.50;;
36391;SDS011;22639;42.690;23.356;2022-07-19T07:12:06;2.40;;;2.20;;
36391;SDS011;22639;42.690;23.356;2022-07-19T07:14:33;4.43;;;2.70;;
36391;SDS011;22639;42.690;23.356;2022-07-19T07:16:58;2.30;;;2.10;;
36391;SDS011;22639;42.690;23.356;2022-07-19T07:19:24;2.60;;;2.40;;
36391;SDS011;22639;42.690;23.356;2022-07-19T07:21:49;2.15;;;1.95;;
36391;SDS011;22639;42.690;23.356;2022-07-19T07:24:15;2.10;;;1.90;;
36391;SDS011;22639;42.690;23.356;2022-07-19T07:26:40;4.20;;;2.30;;
36391;SDS011;22639;42.690;23.356;2022-07-19T07:29:06;2.72;;;1.92;;
36391;SDS011;22639;42.690;23.356;2022-07-19T07:31:31;2.45;;;2.00;;
36391;SDS011;22639;42.690;23.356;2022-07-19T07:33:56;1.90;;;1.80;;
36391;SDS011;22639;42.690;23.356;2022-07-19T07:36:22;2.97;;;1.60;;
36391;SDS011;22639;42.690;23.356;2022-07-19T07:38:47;3.10;;;2.83;;
36391;SDS011;22639;42.690;23.356;2022-07-19T07:41:13;2.20;;;1.80;;
36391;SDS011;22639;42.690;23.356;2022-07-19T07:43:38;2.08;;;1.98;;
36391;SDS011;22639;42.690;23.356;2022-07-19T07:46:04;2.03;;;1.88;;
36391;SDS011;22639;42.690;23.356;2022-07-19T07:48:29;1.73;;;1.63;;
36391;SDS011;22639;42.690;23.356;2022-07-19T07:50:55;2.33;;;1.80;;
36391;SDS011;22639;42.690;23.356;2022-07-19T07:53:21;2.90;;;2.60;;
36391;SDS011;22639;42.690;23.356;2022-07-19T07:55:46;1.63;;;1.52;;
36391;SDS011;22639;42.690;23.356;2022-07-19T07:58:12;1.85;;;1.73;;
36391;SDS011;22639;42.690;23.356;2022-07-19T08:00:38;2.13;;;2.03;;
36391;SDS011;22639;42.690;23.356;2022-07-19T08:03:04;2.20;;;2.00;;
36391;SDS011;22639;42.690;23.356;2022-07-19T08:05:30;1.77;;;1.67;;
36391;SDS011;22639;42.690;23.356;2022-07-19T08:07:56;1.80;;;1.70;;
36391;SDS011;22639;42.690;23.356;2022-07-19T08:10:24;3.25;;;2.10;;
36391;SDS011;22639;42.690;23.356;2022-07-19T08:12:51;3.53;;;1.92;;
36391;SDS011;22639;42.690;23.356;2022-07-19T08:15:17;2.00;;;1.90;;
36391;SDS011;22639;42.690;23.356;2022-07-19T08:17:42;1.95;;;1.50;;
36391;SDS011;22639;42.690;23.356;2022-07-19T08:20:08;1.90;;;1.65;;
36391;SDS011;22639;42.690;23.356;2022-07-19T08:22:33;1.85;;;1.65;;
36391;SDS011;22639;42.690;23.356;2022-07-19T08:24:59;2.05;;;1.85;;
36391;SDS011;22639;42.690;23.356;2022-07-19T08:27:24;2.17;;;1.98;;
36391;SDS011;22639;42.690;23.356;2022-07-19T08:29:50;2.00;;;1.77;;
36391;SDS011;22639;42.690;23.356;2022-07-19T08:32:15;2.03;;;1.90;;
36391;SDS011;22639;42.690;23.356;2022-07-19T08:34:41;1.83;;;1.73;;
36391;SDS011;22639;42.690;23.356;2022-07-19T08:37:06;2.00;;;1.90;;
36391;SDS011;22639;42.690;23.356;2022-07-19T08:39:32;2.83;;;2.08;;
36391;SDS011;22639;42.690;23.356;2022-07-19T08:41:57;2.05;;;1.90;;
36391;SDS011;22639;42.690;23.356;2022-07-19T08:44:23;2.17;;;1.88;;
36391;SDS011;22639;42.690;23.356;2022-07-19T08:46:49;2.40;;;2.08;;
36391;SDS011;22639;42.690;23.356;2022-07-19T08:49:15;2.90;;;2.22;;
36391;SDS011;22639;42.690;23.356;2022-07-19T08:51:41;2.50;;;2.30;;
36391;SDS011;22639;42.690;23.356;2022-07-19T08:54:07;2.53;;;2.33;;
36391;SDS011;22639;42.690;23.356;2022-07-19T08:56:33;1.90;;;1.70;;
36391;SDS011;22639;42.690;23.356;2022-07-19T08:59:17;3.47;;;2.33;;
36391;SDS011;22639;42.690;23.356;2022-07-19T09:01:43;2.47;;;2.13;;
36391;SDS011;22639;42.690;23.356;2022-07-19T09:06:50;2.30;;;2.13;;
36391;SDS011;22639;42.690;23.356;2022-07-19T09:09:18;1.98;;;1.88;;
36391;SDS011;22639;42.690;23.356;2022-07-19T09:11:46;1.65;;;1.55;;
36391;SDS011;22639;42.690;23.356;2022-07-19T09:14:14;4.57;;;2.22;;
36391;SDS011;22639;42.690;23.356;2022-07-19T09:16:48;7.13;;;2.13;;
36391;SDS011;22639;42.690;23.356;2022-07-19T09:19:14;2.10;;;1.90;;
36391;SDS011;22639;42.690;23.356;2022-07-19T09:22:02;2.00;;;1.90;;
36391;SDS011;22639;42.690;23.356;2022-07-19T09:24:27;3.13;;;1.73;;
36391;SDS011;22639;42.690;23.356;2022-07-19T09:26:55;2.00;;;1.90;;
36391;SDS011;22639;42.690;23.356;2022-07-19T09:29:33;2.80;;;1.80;;
36391;SDS011;22639;42.690;23.356;2022-07-19T09:32:14;2.67;;;1.90;;
36391;SDS011;22639;42.690;23.356;2022-07-19T09:34:51;2.08;;;1.90;;
36391;SDS011;22639;42.690;23.356;2022-07-19T09:37:25;3.08;;;2.20;;
36391;SDS011;22639;42.690;23.356;2022-07-19T09:40:00;2.65;;;2.00;;
36391;SDS011;22639;42.690;23.356;2022-07-19T09:45:05;2.25;;;1.92;;
36391;SDS011;22639;42.690;23.356;2022-07-19T09:47:33;2.50;;;2.30;;
36391;SDS011;22639;42.690;23.356;2022-07-19T09:50:01;2.10;;;1.90;;
36391;SDS011;22639;42.690;23.356;2022-07-19T09:52:29;1.85;;;1.75;;
36391;SDS011;22639;42.690;23.356;2022-07-19T09:54:55;1.60;;;1.50;;
36391;SDS011;22639;42.690;23.356;2022-07-19T09:57:24;1.80;;;1.70;;
36391;SDS011;22639;42.690;23.356;2022-07-19T09:59:50;2.60;;;2.40;;
36391;SDS011;22639;42.690;23.356;2022-07-19T10:02:19;3.05;;;2.13;;
36391;SDS011;22639;42.690;23.356;2022-07-19T10:04:47;2.85;;;2.20;;
36391;SDS011;22639;42.690;23.356;2022-07-19T10:07:15;2.10;;;2.00;;
36391;SDS011;22639;42.690;23.356;2022-07-19T10:09:41;2.75;;;2.10;;
36391;SDS011;22639;42.690;23.356;2022-07-19T10:12:08;2.10;;;1.98;;
36391;SDS011;22639;42.690;23.356;2022-07-19T10:14:34;2.47;;;2.28;;
36391;SDS011;22639;42.690;23.356;2022-07-19T10:17:05;2.30;;;2.10;;
36391;SDS011;22639;42.690;23.356;2022-07-19T10:22:12;3.17;;;2.25;;
36391;SDS011;22639;42.690;23.356;2022-07-19T10:25:10;2.17;;;2.00;;
36391;SDS011;22639;42.690;23.356;2022-07-19T10:27:37;2.50;;;2.25;;
36391;SDS011;22639;42.690;23.356;2022-07-19T10:32:41;3.25;;;2.10;;
36391;SDS011;22639;42.690;23.356;2022-07-19T10:35:16;2.50;;;2.30;;
36391;SDS011;22639;42.690;23.356;2022-07-19T10:37:42;2.72;;;2.15;;
36391;SDS011;22639;42.690;23.356;2022-07-19T10:40:09;2.50;;;2.30;;
36391;SDS011;22639;42.690;23.356;2022-07-19T10:42:35;2.50;;;2.30;;
36391;SDS011;22639;42.690;23.356;2022-07-19T10:50:03;2.85;;;2.22;;
36391;SDS011;22639;42.690;23.356;2022-07-19T10:52:37;3.05;;;2.33;;
36391;SDS011;22639;42.690;23.356;2022-07-19T10:57:49;4.07;;;2.20;;
36391;SDS011;22639;42.690;23.356;2022-07-19T11:00:42;2.42;;;2.22;;
36391;SDS011;22639;42.690;23.356;2022-07-19T11:05:48;2.50;;;2.30;;
36391;SDS011;22639;42.690;23.356;2022-07-19T11:08:58;2.30;;;2.10;;
36391;SDS011;22639;42.690;23.356;2022-07-19T11:11:20;2.38;;;2.20;;
36391;SDS011;22639;42.690;23.356;2022-07-19T11:13:47;2.28;;;2.17;;
36391;SDS011;22639;42.690;23.356;2022-07-19T11:16:14;3.05;;;2.55;;
36391;SDS011;22639;42.690;23.356;2022-07-19T11:18:40;3.67;;;2.35;;
36391;SDS011;22639;42.690;23.356;2022-07-19T11:21:06;1.95;;;1.85;;
36391;SDS011;22639;42.690;23.356;2022-07-19T11:23:35;2.60;;;2.40;;
36391;SDS011;22639;42.690;23.356;2022-07-19T11:28:32;2.20;;;2.00;;
36391;SDS011;22639;42.690;23.356;2022-07-19T11:30:58;3.08;;;2.40;;
36391;SDS011;22639;42.690;23.356;2022-07-19T11:33:23;3.25;;;2.03;;
36391;SDS011;22639;42.690;23.356;2022-07-19T11:36:07;2.35;;;2.15;;
36391;SDS011;22639;42.690;23.356;2022-07-19T11:38:34;2.50;;;2.30;;
36391;SDS011;22639;42.690;23.356;2022-07-19T11:41:00;3.42;;;2.22;;
36391;SDS011;22639;42.690;23.356;2022-07-19T11:43:25;2.30;;;2.20;;
36391;SDS011;22639;42.690;23.356;2022-07-19T11:45:51;2.72;;;2.50;;
36391;SDS011;22639;42.690;23.356;2022-07-19T11:48:26;3.40;;;2.38;;
36391;SDS011;22639;42.690;23.356;2022-07-19T11:50:57;2.55;;;2.13;;
36391;SDS011;22639;42.690;23.356;2022-07-19T11:53:31;1.90;;;1.80;;
36391;SDS011;22639;42.690;23.356;2022-07-19T11:55:57;2.72;;;2.30;;
36391;SDS011;22639;42.690;23.356;2022-07-19T11:58:23;4.35;;;2.47;;
36391;SDS011;22639;42.690;23.356;2022-07-19T12:00:50;2.30;;;2.10;;
36391;SDS011;22639;42.690;23.356;2022-07-19T12:03:16;3.28;;;2.28;;
36391;SDS011;22639;42.690;23.356;2022-07-19T12:05:53;2.47;;;2.28;;
36391;SDS011;22639;42.690;23.356;2022-07-19T12:08:30;2.67;;;2.00;;
36391;SDS011;22639;42.690;23.356;2022-07-19T12:13:46;2.25;;;2.15;;
36391;SDS011;22639;42.690;23.356;2022-07-19T12:16:12;1.88;;;1.73;;
36391;SDS011;22639;42.690;23.356;2022-07-19T12:24:11;3.45;;;2.40;;
36391;SDS011;22639;42.690;23.356;2022-07-19T12:31:53;1.90;;;1.80;;
36391;SDS011;22639;42.690;23.356;2022-07-19T12:34:23;3.53;;;2.33;;
36391;SDS011;22639;42.690;23.356;2022-07-19T12:36:49;2.33;;;2.13;;
36391;SDS011;22639;42.690;23.356;2022-07-19T12:39:19;2.60;;;2.40;;
36391;SDS011;22639;42.690;23.356;2022-07-19T12:42:03;2.65;;;2.45;;
36391;SDS011;22639;42.690;23.356;2022-07-19T12:44:30;2.33;;;2.13;;
36391;SDS011;22639;42.690;23.356;2022-07-19T12:46:57;5.15;;;2.25;;
36391;SDS011;22639;42.690;23.356;2022-07-19T12:49:23;2.17;;;1.83;;
36391;SDS011;22639;42.690;23.356;2022-07-19T12:51:49;1.98;;;1.88;;
36391;SDS011;22639;42.690;23.356;2022-07-19T12:54:15;2.50;;;2.30;;
36391;SDS011;22639;42.690;23.356;2022-07-19T12:56:41;2.83;;;2.33;;
36391;SDS011;22639;42.690;23.356;2022-07-19T12:59:06;6.60;;;2.55;;
36391;SDS011;22639;42.690;23.356;2022-07-19T13:01:50;2.00;;;1.90;;
36391;SDS011;22639;42.690;23.356;2022-07-19T13:04:16;4.40;;;2.03;;
36391;SDS011;22639;42.690;23.356;2022-07-19T13:06:42;2.33;;;2.10;;
36391;SDS011;22639;42.690;23.356;2022-07-19T13:09:07;2.05;;;1.85;;
36391;SDS011;22639;42.690;23.356;2022-07-19T13:11:34;2.15;;;2.05;;
36391;SDS011;22639;42.690;23.356;2022-07-19T13:14:00;2.35;;;2.15;;
36391;SDS011;22639;42.690;23.356;2022-07-19T13:16:26;7.90;;;2.28;;
36391;SDS011;22639;42.690;23.356;2022-07-19T13:18:51;2.17;;;1.92;;
36391;SDS011;22639;42.690;23.356;2022-07-19T13:21:16;4.82;;;2.92;;
36391;SDS011;22639;42.690;23.356;2022-07-19T13:23:42;5.50;;;2.40;;
36391;SDS011;22639;42.690;23.356;2022-07-19T13:26:08;1.73;;;1.63;;
36391;SDS011;22639;42.690;23.356;2022-07-19T13:28:33;2.17;;;2.03;;
36391;SDS011;22639;42.690;23.356;2022-07-19T13:31:00;1.90;;;1.80;;
36391;SDS011;22639;42.690;23.356;2022-07-19T13:33:26;2.10;;;1.90;;
36391;SDS011;22639;42.690;23.356;2022-07-19T13:35:51;2.17;;;1.83;;
36391;SDS011;22639;42.690;23.356;2022-07-19T13:38:17;2.15;;;1.95;;
36391;SDS011;22639;42.690;23.356;2022-07-19T13:40:42;2.13;;;2.00;;
36391;SDS011;22639;42.690;23.356;2022-07-19T13:43:08;3.50;;;1.70;;
36391;SDS011;22639;42.690;23.356;2022-07-19T13:45:33;1.80;;;1.70;;
36391;SDS011;22639;42.690;23.356;2022-07-19T13:47:58;1.83;;;1.73;;
36391;SDS011;22639;42.690;23.356;2022-07-19T13:50:24;1.50;;;1.40;;
36391;SDS011;22639;42.690;23.356;2022-07-19T13:52:49;3.00;;;1.90;;
36391;SDS011;22639;42.690;23.356;2022-07-19T13:55:15;2.53;;;1.83;;
36391;SDS011;22639;42.690;23.356;2022-07-19T13:57:40;1.75;;;1.63;;
36391;SDS011;22639;42.690;23.356;2022-07-19T14:00:06;1.35;;;1.25;;
36391;SDS011;22639;42.690;23.356;2022-07-19T14:02:33;2.10;;;1.70;;
36391;SDS011;22639;42.690;23.356;2022-07-19T14:04:58;2.88;;;1.60;;
36391;SDS011;22639;42.690;23.356;2022-07-19T14:07:24;3.17;;;2.03;;
36391;SDS011;22639;42.690;23.356;2022-07-19T14:09:49;2.35;;;1.88;;
36391;SDS011;22639;42.690;23.356;2022-07-19T14:12:15;1.42;;;1.33;;
36391;SDS011;22639;42.690;23.356;2022-07-19T14:14:40;1.88;;;1.70;;
36391;SDS011;22639;42.690;23.356;2022-07-19T14:17:06;1.90;;;1.80;;
36391;SDS011;22639;42.690;23.356;2022-07-19T14:19:31;2.30;;;1.52;;
36391;SDS011;22639;42.690;23.356;2022-07-19T14:22:00;1.80;;;1.70;;
36391;SDS011;22639;42.690;23.356;2022-07-19T14:24:26;2.15;;;1.95;;
36391;SDS011;22639;42.690;23.356;2022-07-19T14:26:51;1.70;;;1.60;;
36391;SDS011;22639;42.690;23.356;2022-07-19T14:29:16;1.95;;;1.85;;
36391;SDS011;22639;42.690;23.356;2022-07-19T14:31:42;1.88;;;1.77;;
36391;SDS011;22639;42.690;23.356;2022-07-19T14:34:07;2.33;;;1.83;;
36391;SDS011;22639;42.690;23.356;2022-07-19T14:36:33;2.83;;;1.63;;
36391;SDS011;22639;42.690;23.356;2022-07-19T14:38:58;2.40;;;1.83;;
36391;SDS011;22639;42.690;23.356;2022-07-19T14:41:23;1.92;;;1.70;;
36391;SDS011;22639;42.690;23.356;2022-07-19T14:43:49;2.00;;;1.80;;
36391;SDS011;22639;42.690;23.356;2022-07-19T14:46:15;2.17;;;2.00;;
36391;SDS011;22639;42.690;23.356;2022-07-19T14:48:40;2.83;;;1.60;;
36391;SDS011;22639;42.690;23.356;2022-07-19T14:51:06;2.25;;;1.45;;
36391;SDS011;22639;42.690;23.356;2022-07-19T14:53:31;1.60;;;1.50;;
36391;SDS011;22639;42.690;23.356;2022-07-19T14:55:57;1.65;;;1.55;;
36391;SDS011;22639;42.690;23.356;2022-07-19T14:58:22;1.70;;;1.60;;
36391;SDS011;22639;42.690;23.356;2022-07-19T15:00:47;2.58;;;1.60;;
36391;SDS011;22639;42.690;23.356;2022-07-19T15:03:13;2.00;;;1.80;;
36391;SDS011;22639;42.690;23.356;2022-07-19T15:05:38;2.70;;;1.80;;
36391;SDS011;22639;42.690;23.356;2022-07-19T15:08:04;2.20;;;1.70;;